sensor_id;sensor_type;location;lat;lon;timestamp;pressure;altitude;pressure_sealevel;temperature;humidity
60609;BME280;48221;53.528;9.884;2022-08-02T00:02:19;101899.53;;;12.16;100.00
60609;BME280;48221;53.528;9.884;2022-08-02T00:04:45;101899.34;;;12.11;100.00
60609;BME280;48221;53.528;9.884;2022-08-02T00:07:11;101901.06;;;12.11;100.00
60609;BME280;48221;53.528;9.884;2022-08-02T00:09:36;101898.22;;;12.05;100.00
60609;BME280;48221;53.528;9.884;2022-08-02T00:12:01;101902.63;;;12.06;100.00
60609;BME280;48221;53.528;9.884;2022-08-02T00:14:27;101890.16;;;11.98;100.00
60609;BME280;48221;53.528;9.884;2022-08-02T00:16:52;101900.66;;;12.00;100.00
60609;BME280;48221;53.528;9.884;2022-08-02T00:19:17;101900.59;;;11.98;100.00
60609;BME280;48221;53.528;9.884;2022-08-02T00:21:43;101894.34;;;11.93;100.00
60609;BME280;48221;53.528;9.884;2022-08-02T00:24:09;101889.84;;;11.91;100.00
60609;BME280;48221;53.528;9.884;2022-08-02T00:26:34;101887.19;;;11.89;100.00
60609;BME280;48221;53.528;9.884;2022-08-02T00:28:59;101880.06;;;11.85;100.00
60609;BME280;48221;53.528;9.884;2022-08-02T00:31:25;101887.81;;;11.82;100.00
60609;BME280;48221;53.528;9.884;2022-08-02T00:33:50;101877.22;;;11.79;100.00
60609;BME280;48221;53.528;9.884;2022-08-02T00:36:16;101882.28;;;11.76;100.00
60609;BME280;48221;53.528;9.884;2022-08-02T00:38:41;101884.69;;;11.70;100.00
60609;BME280;48221;53.528;9.884;2022-08-02T00:41:16;101888.94;;;11.68;100.00
60609;BME280;48221;53.528;9.884;2022-08-02T00:43:42;101884.44;;;11.64;100.00
60609;BME280;48221;53.528;9.884;2022-08-02T00:46:08;101892.19;;;11.61;100.00
60609;BME280;48221;53.528;9.884;2022-08-02T00:48:34;101891.16;;;11.57;100.00
60609;BME280;48221;53.528;9.884;2022-08-02T00:51:00;101895.47;;;11.57;100.00
60609;BME280;48221;53.528;9.884;2022-08-02T00:53:26;101905.81;;;11.54;100.00
60609;BME280;48221;53.528;9.884;2022-08-02T00:55:51;101907.50;;;11.52;100.00
60609;BME280;48221;53.528;9.884;2022-08-02T00:58:16;101908.28;;;11.49;100.00
60609;BME280;48221;53.528;9.884;2022-08-02T01:00:42;101915.16;;;11.47;100.00
60609;BME280;48221;53.528;9.884;2022-08-02T01:03:07;101922.88;;;11.44;100.00
60609;BME280;48221;53.528;9.884;2022-08-02T01:05:33;101916.63;;;11.40;100.00
60609;BME280;48221;53.528;9.884;2022-08-02T01:07:58;101915.69;;;11.38;100.00
60609;BME280;48221;53.528;9.884;2022-08-02T01:10:23;101919.97;;;11.36;100.00
60609;BME280;48221;53.528;9.884;2022-08-02T01:12:49;101908.41;;;11.31;100.00
60609;BME280;48221;53.528;9.884;2022-08-02T01:15:16;101918.75;;;11.28;100.00
60609;BME280;48221;53.528;9.884;2022-08-02T01:18:02;101928.50;;;11.32;100.00
60609;BME280;48221;53.528;9.884;2022-08-02T01:28:52;101919.38;;;11.23;100.00
60609;BME280;48221;53.528;9.884;2022-08-02T01:31:37;101921.94;;;11.21;100.00
60609;BME280;48221;53.528;9.884;2022-08-02T01:34:21;101912.94;;;11.13;100.00
60609;BME280;48221;53.528;9.884;2022-08-02T01:36:55;101921.72;;;11.15;100.00
60609;BME280;48221;53.528;9.884;2022-08-02T01:39:24;101915.47;;;11.12;100.00
60609;BME280;48221;53.528;9.884;2022-08-02T01:41:52;101914.44;;;11.08;100.00
60609;BME280;48221;53.528;9.884;2022-08-02T01:44:20;101916.09;;;11.06;100.00
60609;BME280;48221;53.528;9.884;2022-08-02T01:46:47;101919.53;;;11.05;100.00
60609;BME280;48221;53.528;9.884;2022-08-02T01:49:15;101928.22;;;11.04;100.00
60609;BME280;48221;53.528;9.884;2022-08-02T01:51:42;101917.69;;;11.02;100.00
60609;BME280;48221;53.528;9.884;2022-08-02T01:54:30;101916.66;;;10.99;100.00
60609;BME280;48221;53.528;9.884;2022-08-02T01:56:58;101928.00;;;10.99;100.00
60609;BME280;48221;53.528;9.884;2022-08-02T01:59:26;101926.22;;;10.98;100.00
60609;BME280;48221;53.528;9.884;2022-08-02T02:01:54;101926.16;;;10.97;100.00
60609;BME280;48221;53.528;9.884;2022-08-02T02:04:21;101934.75;;;10.94;100.00
60609;BME280;48221;53.528;9.884;2022-08-02T02:06:48;101932.09;;;10.93;100.00
60609;BME280;48221;53.528;9.884;2022-08-02T02:09:15;101939.81;;;10.90;100.00
60609;BME280;48221;53.528;9.884;2022-08-02T02:11:45;101926.66;;;10.88;100.00
60609;BME280;48221;53.528;9.884;2022-08-02T02:14:12;101932.66;;;10.86;100.00
60609;BME280;48221;53.528;9.884;2022-08-02T02:16:41;101926.47;;;10.84;100.00
60609;BME280;48221;53.528;9.884;2022-08-02T02:19:09;101917.50;;;10.77;100.00
60609;BME280;48221;53.528;9.884;2022-08-02T02:21:35;101923.63;;;10.77;100.00
60609;BME280;48221;53.528;9.884;2022-08-02T02:24:01;101916.47;;;10.73;100.00
60609;BME280;48221;53.528;9.884;2022-08-02T02:26:28;101917.22;;;10.71;100.00
60609;BME280;48221;53.528;9.884;2022-08-02T02:28:57;101913.72;;;10.70;100.00
60609;BME280;48221;53.528;9.884;2022-08-02T02:31:24;101912.78;;;10.68;100.00
60609;BME280;48221;53.528;9.884;2022-08-02T02:34:13;101908.22;;;10.64;100.00
60609;BME280;48221;53.528;9.884;2022-08-02T02:36:47;101900.22;;;10.60;100.00
60609;BME280;48221;53.528;9.884;2022-08-02T02:39:14;101904.50;;;10.58;100.00
60609;BME280;48221;53.528;9.884;2022-08-02T02:41:43;101899.16;;;10.55;100.00
60609;BME280;48221;53.528;9.884;2022-08-02T02:44:12;101897.28;;;10.52;100.00
60609;BME280;48221;53.528;9.884;2022-08-02T02:46:39;101895.44;;;10.49;100.00
60609;BME280;48221;53.528;9.884;2022-08-02T02:49:06;101892.75;;;10.48;100.00
60609;BME280;48221;53.528;9.884;2022-08-02T02:51:33;101890.97;;;10.47;100.00
60609;BME280;48221;53.528;9.884;2022-08-02T02:54:00;101891.81;;;10.46;100.00
60609;BME280;48221;53.528;9.884;2022-08-02T02:56:27;101887.28;;;10.42;100.00
60609;BME280;48221;53.528;9.884;2022-08-02T02:58:52;101886.25;;;10.38;100.00
60609;BME280;48221;53.528;9.884;2022-08-02T03:01:19;101890.63;;;10.39;100.00
60609;BME280;48221;53.528;9.884;2022-08-02T03:04:00;101884.41;;;10.36;100.00
60609;BME280;48221;53.528;9.884;2022-08-02T03:06:27;101888.66;;;10.34;100.00
60609;BME280;48221;53.528;9.884;2022-08-02T03:08:52;101890.38;;;10.33;100.00
60609;BME280;48221;53.528;9.884;2022-08-02T03:11:18;101891.06;;;10.29;100.00
60609;BME280;48221;53.528;9.884;2022-08-02T03:13:44;101895.38;;;10.29;100.00
60609;BME280;48221;53.528;9.884;2022-08-02T03:16:11;101903.16;;;10.27;100.00
60609;BME280;48221;53.528;9.884;2022-08-02T03:18:42;101895.25;;;10.26;100.00
60609;BME280;48221;53.528;9.884;2022-08-02T03:21:12;101888.25;;;10.25;100.00
60609;BME280;48221;53.528;9.884;2022-08-02T03:23:39;101887.31;;;10.22;100.00
60609;BME280;48221;53.528;9.884;2022-08-02T03:26:05;101889.16;;;10.25;100.00
60609;BME280;48221;53.528;9.884;2022-08-02T03:28:31;101882.97;;;10.23;100.00
60609;BME280;48221;53.528;9.884;2022-08-02T03:30:56;101878.72;;;10.25;100.00
60609;BME280;48221;53.528;9.884;2022-08-02T03:33:23;101882.28;;;10.27;100.00
60609;BME280;48221;53.528;9.884;2022-08-02T03:35:51;101879.72;;;10.29;100.00
60609;BME280;48221;53.528;9.884;2022-08-02T03:38:18;101878.84;;;10.28;100.00
60609;BME280;48221;53.528;9.884;2022-08-02T03:40:45;101881.50;;;10.30;100.00
60609;BME280;48221;53.528;9.884;2022-08-02T03:43:11;101880.56;;;10.28;100.00
60609;BME280;48221;53.528;9.884;2022-08-02T03:45:39;101876.22;;;10.28;100.00
60609;BME280;48221;53.528;9.884;2022-08-02T03:48:07;101869.09;;;10.24;100.00
60609;BME280;48221;53.528;9.884;2022-08-02T03:50:35;101873.50;;;10.25;100.00
60609;BME280;48221;53.528;9.884;2022-08-02T03:53:01;101862.22;;;10.26;100.00
60609;BME280;48221;53.528;9.884;2022-08-02T03:55:27;101867.44;;;10.26;100.00
60609;BME280;48221;53.528;9.884;2022-08-02T03:57:53;101865.66;;;10.25;100.00
60609;BME280;48221;53.528;9.884;2022-08-02T04:00:20;101872.72;;;10.28;100.00
60609;BME280;48221;53.528;9.884;2022-08-02T04:02:46;101875.41;;;10.29;100.00
60609;BME280;48221;53.528;9.884;2022-08-02T04:05:12;101873.69;;;10.30;100.00
60609;BME280;48221;53.528;9.884;2022-08-02T04:07:38;101877.19;;;10.30;100.00
60609;BME280;48221;53.528;9.884;2022-08-02T04:10:04;101882.41;;;10.30;100.00
60609;BME280;48221;53.528;9.884;2022-08-02T04:12:30;101884.22;;;10.31;100.00
60609;BME280;48221;53.528;9.884;2022-08-02T04:14:55;101886.88;;;10.33;100.00
60609;BME280;48221;53.528;9.884;2022-08-02T04:17:22;101884.34;;;10.34;100.00
60609;BME280;48221;53.528;9.884;2022-08-02T04:19:49;101888.59;;;10.32;100.00
60609;BME280;48221;53.528;9.884;2022-08-02T04:22:22;101889.56;;;10.34;100.00
60609;BME280;48221;53.528;9.884;2022-08-02T04:24:49;101895.59;;;10.33;100.00
60609;BME280;48221;53.528;9.884;2022-08-02T04:27:16;101900.75;;;10.32;100.00
60609;BME280;48221;53.528;9.884;2022-08-02T04:29:44;101892.03;;;10.31;100.00
60609;BME280;48221;53.528;9.884;2022-08-02T04:32:10;101893.66;;;10.29;100.00
60609;BME280;48221;53.528;9.884;2022-08-02T04:34:37;101899.72;;;10.28;100.00
60609;BME280;48221;53.528;9.884;2022-08-02T04:37:03;101900.59;;;10.29;100.00
60609;BME280;48221;53.528;9.884;2022-08-02T04:39:28;101898.81;;;10.28;100.00
60609;BME280;48221;53.528;9.884;2022-08-02T04:41:53;101897.03;;;10.27;100.00
60609;BME280;48221;53.528;9.884;2022-08-02T04:44:19;101903.16;;;10.27;100.00
60609;BME280;48221;53.528;9.884;2022-08-02T04:46:44;101901.44;;;10.28;100.00
60609;BME280;48221;53.528;9.884;2022-08-02T04:49:10;101891.81;;;10.27;100.00
60609;BME280;48221;53.528;9.884;2022-08-02T04:51:38;101906.56;;;10.26;100.00
60609;BME280;48221;53.528;9.884;2022-08-02T04:54:05;101903.16;;;10.27;100.00
60609;BME280;48221;53.528;9.884;2022-08-02T04:56:31;101896.91;;;10.23;100.00
60609;BME280;48221;53.528;9.884;2022-08-02T04:58:56;101902.19;;;10.25;100.00
60609;BME280;48221;53.528;9.884;2022-08-02T05:01:22;101898.88;;;10.29;100.00
60609;BME280;48221;53.528;9.884;2022-08-02T05:03:47;101896.22;;;10.28;100.00
60609;BME280;48221;53.528;9.884;2022-08-02T05:06:12;101891.88;;;10.28;100.00
60609;BME280;48221;53.528;9.884;2022-08-02T05:08:38;101891.06;;;10.29;100.00
60609;BME280;48221;53.528;9.884;2022-08-02T05:11:03;101891.06;;;10.29;100.00
60609;BME280;48221;53.528;9.884;2022-08-02T05:13:29;101889.34;;;10.30;100.00
60609;BME280;48221;53.528;9.884;2022-08-02T05:15:54;101896.44;;;10.32;100.00
60609;BME280;48221;53.528;9.884;2022-08-02T05:18:19;101895.66;;;10.35;100.00
60609;BME280;48221;53.528;9.884;2022-08-02T05:20:44;101891.47;;;10.38;100.00
60609;BME280;48221;53.528;9.884;2022-08-02T05:23:10;101891.47;;;10.38;100.00
60609;BME280;48221;53.528;9.884;2022-08-02T05:25:35;101887.28;;;10.42;100.00
60609;BME280;48221;53.528;9.884;2022-08-02T05:28:00;101886.47;;;10.43;100.00
60609;BME280;48221;53.528;9.884;2022-08-02T05:30:26;101888.44;;;10.48;100.00
60609;BME280;48221;53.528;9.884;2022-08-02T05:32:51;101894.66;;;10.52;100.00
60609;BME280;48221;53.528;9.884;2022-08-02T05:35:18;101898.38;;;10.57;100.00
60609;BME280;48221;53.528;9.884;2022-08-02T05:37:44;101894.94;;;10.58;100.00
60609;BME280;48221;53.528;9.884;2022-08-02T05:40:09;101898.63;;;10.63;100.00
60609;BME280;48221;53.528;9.884;2022-08-02T05:42:35;101904.06;;;10.68;100.00
60609;BME280;48221;53.528;9.884;2022-08-02T05:45:00;101899.03;;;10.72;100.00
60609;BME280;48221;53.528;9.884;2022-08-02T05:47:26;101887.88;;;10.76;100.00
60609;BME280;48221;53.528;9.884;2022-08-02T05:49:52;101892.53;;;10.84;100.00
60609;BME280;48221;53.528;9.884;2022-08-02T05:52:18;101891.91;;;10.89;100.00
60609;BME280;48221;53.528;9.884;2022-08-02T05:54:59;101891.25;;;10.95;100.00
60609;BME280;48221;53.528;9.884;2022-08-02T06:00:13;101892.53;;;11.04;100.00
60609;BME280;48221;53.528;9.884;2022-08-02T06:07:35;101896.97;;;11.28;100.00
60609;BME280;48221;53.528;9.884;2022-08-02T06:10:05;101899.91;;;11.35;100.00
60609;BME280;48221;53.528;9.884;2022-08-02T06:12:32;101896.66;;;11.43;100.00
60609;BME280;48221;53.528;9.884;2022-08-02T06:15:01;101889.19;;;11.52;100.00
60609;BME280;48221;53.528;9.884;2022-08-02T06:17:27;101890.41;;;11.60;100.00
60609;BME280;48221;53.528;9.884;2022-08-02T06:19:55;101884.59;;;11.68;100.00
60609;BME280;48221;53.528;9.884;2022-08-02T06:22:24;101888.66;;;11.81;100.00
60609;BME280;48221;53.528;9.884;2022-08-02T06:24:51;101892.56;;;11.92;100.00
60609;BME280;48221;53.528;9.884;2022-08-02T06:27:19;101893.81;;;12.04;100.00
60609;BME280;48221;53.528;9.884;2022-08-02T06:29:47;101903.97;;;12.18;100.00
60609;BME280;48221;53.528;9.884;2022-08-02T06:32:17;101896.56;;;12.31;100.00
60609;BME280;48221;53.528;9.884;2022-08-02T06:34:43;101896.94;;;12.41;100.00
60609;BME280;48221;53.528;9.884;2022-08-02T06:40:13;101889.09;;;12.67;100.00
60609;BME280;48221;53.528;9.884;2022-08-02T06:42:50;101892.03;;;12.76;100.00
60609;BME280;48221;53.528;9.884;2022-08-02T06:45:16;101899.25;;;12.83;100.00
60609;BME280;48221;53.528;9.884;2022-08-02T06:47:42;101896.03;;;12.92;100.00
60609;BME280;48221;53.528;9.884;2022-08-02T06:50:09;101881.53;;;13.01;100.00
60609;BME280;48221;53.528;9.884;2022-08-02T06:52:34;101885.38;;;13.12;100.00
60609;BME280;48221;53.528;9.884;2022-08-02T06:55:02;101876.00;;;13.19;100.00
60609;BME280;48221;53.528;9.884;2022-08-02T06:57:29;101875.41;;;13.28;100.00
60609;BME280;48221;53.528;9.884;2022-08-02T06:59:55;101873.00;;;13.34;100.00
60609;BME280;48221;53.528;9.884;2022-08-02T07:02:21;101876.72;;;13.42;100.00
60609;BME280;48221;53.528;9.884;2022-08-02T07:04:47;101876.97;;;13.50;100.00
60609;BME280;48221;53.528;9.884;2022-08-02T07:07:12;101857.09;;;13.56;100.00
60609;BME280;48221;53.528;9.884;2022-08-02T07:09:37;101856.41;;;13.63;100.00
60609;BME280;48221;53.528;9.884;2022-08-02T07:12:03;101859.31;;;13.72;100.00
60609;BME280;48221;53.528;9.884;2022-08-02T07:14:29;101864.84;;;13.82;100.00
60609;BME280;48221;53.528;9.884;2022-08-02T07:16:54;101865.06;;;13.89;100.00
60609;BME280;48221;53.528;9.884;2022-08-02T07:19:19;101857.47;;;14.00;100.00
60609;BME280;48221;53.528;9.884;2022-08-02T07:21:45;101861.25;;;14.10;100.00
60609;BME280;48221;53.528;9.884;2022-08-02T07:24:10;101857.97;;;14.17;100.00
60609;BME280;48221;53.528;9.884;2022-08-02T07:26:35;101857.34;;;14.25;100.00
60609;BME280;48221;53.528;9.884;2022-08-02T07:29:00;101857.47;;;14.31;100.00
60609;BME280;48221;53.528;9.884;2022-08-02T07:31:26;101851.63;;;14.42;100.00
60609;BME280;48221;53.528;9.884;2022-08-02T07:33:52;101857.09;;;14.48;100.00
60609;BME280;48221;53.528;9.884;2022-08-02T07:36:17;101852.06;;;14.57;100.00
60609;BME280;48221;53.528;9.884;2022-08-02T07:38:43;101861.88;;;14.64;100.00
60609;BME280;48221;53.528;9.884;2022-08-02T07:41:08;101864.75;;;14.73;100.00
60609;BME280;48221;53.528;9.884;2022-08-02T07:43:33;101867.63;;;14.82;100.00
60609;BME280;48221;53.528;9.884;2022-08-02T07:45:59;101865.19;;;14.92;100.00
60609;BME280;48221;53.528;9.884;2022-08-02T07:48:24;101860.13;;;14.99;100.00
60609;BME280;48221;53.528;9.884;2022-08-02T07:50:49;101859.47;;;15.08;100.00
60609;BME280;48221;53.528;9.884;2022-08-02T07:53:15;101862.31;;;15.17;100.00
60609;BME280;48221;53.528;9.884;2022-08-02T07:55:40;101859.88;;;15.26;100.00
60609;BME280;48221;53.528;9.884;2022-08-02T07:58:09;101860.94;;;15.33;100.00
60609;BME280;48221;53.528;9.884;2022-08-02T08:00:35;101853.28;;;15.43;100.00
60609;BME280;48221;53.528;9.884;2022-08-02T08:03:00;101846.41;;;15.50;100.00
60609;BME280;48221;53.528;9.884;2022-08-02T08:05:25;101843.09;;;15.59;100.00
60609;BME280;48221;53.528;9.884;2022-08-02T08:07:51;101833.66;;;15.67;100.00
60609;BME280;48221;53.528;9.884;2022-08-02T08:10:16;101833.84;;;15.74;100.00
60609;BME280;48221;53.528;9.884;2022-08-02T08:12:41;101833.09;;;15.83;100.00
60609;BME280;48221;53.528;9.884;2022-08-02T08:15:07;101823.69;;;15.94;100.00
60609;BME280;48221;53.528;9.884;2022-08-02T08:17:32;101818.56;;;16.00;100.00
60609;BME280;48221;53.528;9.884;2022-08-02T08:20:00;101811.66;;;16.07;100.00
60609;BME280;48221;53.528;9.884;2022-08-02T08:22:25;101810.09;;;16.17;100.00
60609;BME280;48221;53.528;9.884;2022-08-02T08:24:51;101812.88;;;16.26;100.00
60609;BME280;48221;53.528;9.884;2022-08-02T08:27:17;101807.84;;;16.38;100.00
60609;BME280;48221;53.528;9.884;2022-08-02T08:29:44;101803.63;;;16.48;100.00
60609;BME280;48221;53.528;9.884;2022-08-02T08:32:10;101798.53;;;16.57;100.00
60609;BME280;48221;53.528;9.884;2022-08-02T08:34:36;101806.63;;;16.68;100.00
60609;BME280;48221;53.528;9.884;2022-08-02T08:37:01;101796.22;;;16.77;100.00
60609;BME280;48221;53.528;9.884;2022-08-02T08:39:28;101800.75;;;16.85;100.00
60609;BME280;48221;53.528;9.884;2022-08-02T08:41:53;101792.97;;;16.93;100.00
60609;BME280;48221;53.528;9.884;2022-08-02T08:44:18;101783.47;;;17.03;100.00
60609;BME280;48221;53.528;9.884;2022-08-02T08:46:47;101783.63;;;17.13;100.00
60609;BME280;48221;53.528;9.884;2022-08-02T08:49:28;101779.34;;;17.25;100.00
60609;BME280;48221;53.528;9.884;2022-08-02T08:51:55;101778.56;;;17.32;100.00
60609;BME280;48221;53.528;9.884;2022-08-02T08:54:26;101786.59;;;17.38;100.00
60609;BME280;48221;53.528;9.884;2022-08-02T08:56:54;101791.06;;;17.45;100.00
60609;BME280;48221;53.528;9.884;2022-08-02T08:59:20;101788.56;;;17.57;100.00
60609;BME280;48221;53.528;9.884;2022-08-02T09:01:46;101790.47;;;17.67;100.00
60609;BME280;48221;53.528;9.884;2022-08-02T09:04:11;101789.75;;;17.79;100.00
60609;BME280;48221;53.528;9.884;2022-08-02T09:06:39;101787.22;;;17.88;100.00
60609;BME280;48221;53.528;9.884;2022-08-02T09:09:05;101786.50;;;18.01;100.00
60609;BME280;48221;53.528;9.884;2022-08-02T09:11:31;101777.78;;;18.12;100.00
60609;BME280;48221;53.528;9.884;2022-08-02T09:13:58;101767.31;;;18.19;100.00
60609;BME280;48221;53.528;9.884;2022-08-02T09:18:59;101769.28;;;18.42;100.00
60609;BME280;48221;53.528;9.884;2022-08-02T09:21:36;101773.75;;;18.52;100.00
60609;BME280;48221;53.528;9.884;2022-08-02T09:24:01;101763.25;;;18.58;100.00
60609;BME280;48221;53.528;9.884;2022-08-02T09:26:27;101773.94;;;18.70;100.00
60609;BME280;48221;53.528;9.884;2022-08-02T09:28:59;101758.16;;;18.81;100.00
60609;BME280;48221;53.528;9.884;2022-08-02T09:31:25;101751.19;;;18.90;100.00
60609;BME280;48221;53.528;9.884;2022-08-02T09:33:56;101758.31;;;19.02;100.00
60609;BME280;48221;53.528;9.884;2022-08-02T09:36:22;101761.03;;;19.16;100.00
60609;BME280;48221;53.528;9.884;2022-08-02T09:39:10;101767.25;;;19.27;100.00
60609;BME280;48221;53.528;9.884;2022-08-02T09:41:38;101769.97;;;19.36;100.00
60609;BME280;48221;53.528;9.884;2022-08-02T09:44:06;101767.31;;;19.44;100.00
60609;BME280;48221;53.528;9.884;2022-08-02T09:46:34;101770.06;;;19.56;100.00
60609;BME280;48221;53.528;9.884;2022-08-02T09:49:12;101767.44;;;19.65;100.00
60609;BME280;48221;53.528;9.884;2022-08-02T09:54:15;101748.09;;;19.83;100.00
60609;BME280;48221;53.528;9.884;2022-08-02T09:56:47;101749.88;;;19.92;100.00
60609;BME280;48221;53.528;9.884;2022-08-02T09:59:15;101756.06;;;20.00;100.00
60609;BME280;48221;53.528;9.884;2022-08-02T10:01:42;101756.97;;;20.08;99.52
60609;BME280;48221;53.528;9.884;2022-08-02T10:04:10;101753.47;;;20.18;100.00
60609;BME280;48221;53.528;9.884;2022-08-02T10:06:40;101760.53;;;20.30;97.34
60609;BME280;48221;53.528;9.884;2022-08-02T10:09:07;101762.28;;;20.37;96.42
60609;BME280;48221;53.528;9.884;2022-08-02T10:11:33;101751.72;;;20.48;95.56
60609;BME280;48221;53.528;9.884;2022-08-02T10:14:01;101756.13;;;20.58;93.54
60609;BME280;48221;53.528;9.884;2022-08-02T10:16:27;101750.84;;;20.68;90.84
60609;BME280;48221;53.528;9.884;2022-08-02T10:18:55;101750.84;;;20.76;97.13
60609;BME280;48221;53.528;9.884;2022-08-02T10:24:06;101748.16;;;20.96;93.53
60609;BME280;48221;53.528;9.884;2022-08-02T10:26:33;101748.13;;;21.02;95.59
60609;BME280;48221;53.528;9.884;2022-08-02T10:29:00;101749.88;;;21.12;95.63
60609;BME280;48221;53.528;9.884;2022-08-02T10:32:05;101755.13;;;21.24;88.08
60609;BME280;48221;53.528;9.884;2022-08-02T10:34:38;101746.25;;;21.38;93.28
60609;BME280;48221;53.528;9.884;2022-08-02T10:37:07;101743.56;;;21.48;83.57
60609;BME280;48221;53.528;9.884;2022-08-02T10:39:41;101742.66;;;21.57;68.37
60609;BME280;48221;53.528;9.884;2022-08-02T10:42:07;101731.06;;;21.70;70.65
60609;BME280;48221;53.528;9.884;2022-08-02T10:44:34;101740.75;;;21.80;64.92
60609;BME280;48221;53.528;9.884;2022-08-02T10:47:29;101735.38;;;21.90;61.09
60609;BME280;48221;53.528;9.884;2022-08-02T10:49:59;101732.66;;;22.02;57.94
60609;BME280;48221;53.528;9.884;2022-08-02T10:52:28;101734.41;;;22.07;57.14
60609;BME280;48221;53.528;9.884;2022-08-02T10:54:59;101729.06;;;22.10;53.71
60609;BME280;48221;53.528;9.884;2022-08-02T10:57:26;101719.25;;;22.20;53.73
60609;BME280;48221;53.528;9.884;2022-08-02T11:02:46;101708.59;;;22.25;54.19
60609;BME280;48221;53.528;9.884;2022-08-02T11:07:41;101699.59;;;22.38;45.99
60609;BME280;48221;53.528;9.884;2022-08-02T11:15:25;101706.44;;;22.65;47.40
60609;BME280;48221;53.528;9.884;2022-08-02T11:17:56;101713.44;;;22.75;49.24
60609;BME280;48221;53.528;9.884;2022-08-02T11:20:24;101700.00;;;22.89;49.95
60609;BME280;48221;53.528;9.884;2022-08-02T11:22:51;101695.56;;;22.92;47.04
60609;BME280;48221;53.528;9.884;2022-08-02T11:27:49;101700.53;;;23.20;48.54
60609;BME280;48221;53.528;9.884;2022-08-02T11:30:15;101693.19;;;23.37;50.55
60609;BME280;48221;53.528;9.884;2022-08-02T11:32:41;101694.81;;;23.50;47.47
60609;BME280;48221;53.528;9.884;2022-08-02T11:35:07;101687.75;;;23.46;43.93
60609;BME280;48221;53.528;9.884;2022-08-02T11:37:34;101685.94;;;23.48;43.76
60609;BME280;48221;53.528;9.884;2022-08-02T11:40:01;101687.69;;;23.52;46.60
60609;BME280;48221;53.528;9.884;2022-08-02T11:42:34;101691.06;;;23.67;46.94
60609;BME280;48221;53.528;9.884;2022-08-02T11:45:00;101682.81;;;23.85;44.76
60609;BME280;48221;53.528;9.884;2022-08-02T11:47:26;101685.25;;;23.99;48.31
60609;BME280;48221;53.528;9.884;2022-08-02T11:49:51;101688.63;;;24.10;48.33
60609;BME280;48221;53.528;9.884;2022-08-02T11:52:16;101683.03;;;24.24;48.85
60609;BME280;48221;53.528;9.884;2022-08-02T11:54:42;101682.84;;;24.37;46.37
60609;BME280;48221;53.528;9.884;2022-08-02T11:57:18;101677.41;;;24.42;46.67
60609;BME280;48221;53.528;9.884;2022-08-02T11:59:46;101671.84;;;24.54;47.66
60609;BME280;48221;53.528;9.884;2022-08-02T12:02:12;101671.50;;;24.72;44.99
60609;BME280;48221;53.528;9.884;2022-08-02T12:04:39;101662.38;;;24.84;45.33
60609;BME280;48221;53.528;9.884;2022-08-02T12:07:08;101656.88;;;24.93;46.18
60609;BME280;48221;53.528;9.884;2022-08-02T12:09:35;101659.94;;;25.18;48.83
60609;BME280;48221;53.528;9.884;2022-08-02T12:12:03;101657.72;;;25.39;43.13
60609;BME280;48221;53.528;9.884;2022-08-02T12:14:30;101652.81;;;25.59;45.94
60609;BME280;48221;53.528;9.884;2022-08-02T12:16:56;101645.94;;;25.86;47.33
60609;BME280;48221;53.528;9.884;2022-08-02T12:19:41;101639.84;;;26.15;46.48
60609;BME280;48221;53.528;9.884;2022-08-02T12:22:18;101638.94;;;26.50;45.08
60609;BME280;48221;53.528;9.884;2022-08-02T12:24:51;101640.63;;;26.85;43.63
60609;BME280;48221;53.528;9.884;2022-08-02T12:27:46;101638.28;;;27.06;39.96
60609;BME280;48221;53.528;9.884;2022-08-02T12:30:15;101640.34;;;27.27;39.95
60609;BME280;48221;53.528;9.884;2022-08-02T12:32:41;101635.72;;;27.60;43.78
60609;BME280;48221;53.528;9.884;2022-08-02T12:35:15;101624.91;;;27.91;41.04
60609;BME280;48221;53.528;9.884;2022-08-02T12:37:43;101621.03;;;28.00;36.34
60609;BME280;48221;53.528;9.884;2022-08-02T12:40:18;101622.22;;;28.17;39.73
60609;BME280;48221;53.528;9.884;2022-08-02T12:43:17;101618.81;;;28.39;37.29
60609;BME280;48221;53.528;9.884;2022-08-02T12:45:46;101615.34;;;28.60;40.44
60609;BME280;48221;53.528;9.884;2022-08-02T12:48:12;101621.22;;;28.70;37.14
60609;BME280;48221;53.528;9.884;2022-08-02T12:50:38;101613.03;;;28.74;37.64
60609;BME280;48221;53.528;9.884;2022-08-02T12:53:12;101604.47;;;28.88;36.56
60609;BME280;48221;53.528;9.884;2022-08-02T12:55:57;101601.00;;;28.85;36.25
60609;BME280;48221;53.528;9.884;2022-08-02T12:58:23;101595.91;;;28.77;35.66
60609;BME280;48221;53.528;9.884;2022-08-02T13:00:59;101601.97;;;28.82;35.22
60609;BME280;48221;53.528;9.884;2022-08-02T13:03:24;101612.44;;;28.66;33.00
60609;BME280;48221;53.528;9.884;2022-08-02T13:05:50;101614.84;;;28.74;37.40
60609;BME280;48221;53.528;9.884;2022-08-02T13:08:16;101611.75;;;28.85;35.51
60609;BME280;48221;53.528;9.884;2022-08-02T13:10:42;101614.78;;;28.75;36.15
60609;BME280;48221;53.528;9.884;2022-08-02T13:13:08;101604.84;;;28.77;36.89
60609;BME280;48221;53.528;9.884;2022-08-02T13:15:34;101607.78;;;28.71;37.41
60609;BME280;48221;53.528;9.884;2022-08-02T13:17:59;101603.75;;;28.58;35.47
60609;BME280;48221;53.528;9.884;2022-08-02T13:20:26;101606.03;;;28.45;36.49
60609;BME280;48221;53.528;9.884;2022-08-02T13:22:54;101601.47;;;28.47;37.53
60609;BME280;48221;53.528;9.884;2022-08-02T13:25:19;101601.94;;;28.60;35.32
60609;BME280;48221;53.528;9.884;2022-08-02T13:27:48;101602.16;;;28.77;38.19